3OK8 weather

Flying G Ranch Airport
Sand Springs, Oklahoma, United States

Public forecast

Using degrees Fahrenheit for public forecast. Weather courtesy of forecast.io.

METAR (pilot weather report)

Closest report is William R. Pogue Municipal Airport, 5.3 nm (9.8 km) NE. Retrieved 2019/04/24 09:35 UTC (0 seconds ago):

KOWP 240935Z AUTO 00000KT 5SM RA SCT007 SCT041 OVC050 14/13 A2994 RMK AO2 LTG DSNT E P0002 T01400130

TAF (pilot weather forecast)

Closest forecast is Richard Lloyd Jones Jr Airport, 12.9 nm (24.0 km) ESE. Retrieved 2019/04/24 06:22 UTC (3 hours ago):

TAF KRVS 240520Z 2406/2506 35008KT P6SM OVC007 FM240900 34004KT P6SM OVC004 FM241800 34003KT P6SM OVC015 FM242100 35005KT P6SM BKN050 FM250300 04003KT P6SM BKN250